createdAt,value
2022-11-22T00:00:42.171Z,24.20
2022-11-22T00:03:09.427Z,27.45
2022-11-22T00:05:36.532Z,31.52
2022-11-22T00:08:04.445Z,27.73
2022-11-22T00:10:31.493Z,26.38
2022-11-22T00:12:58.826Z,26.83
2022-11-22T00:15:25.771Z,30.45
2022-11-22T00:17:52.704Z,28.65
2022-11-22T00:20:19.586Z,29.92
2022-11-22T00:22:47.011Z,25.45
2022-11-22T00:25:14.727Z,29.88
2022-11-22T00:27:42.114Z,26.55
2022-11-22T00:30:10.141Z,25.80
2022-11-22T00:32:37.354Z,29.83
2022-11-22T00:35:05.065Z,27.73
2022-11-22T00:37:32.702Z,26.92
2022-11-22T00:39:59.612Z,26.92
2022-11-22T00:42:27.075Z,23.98
2022-11-22T00:44:54.060Z,28.70
2022-11-22T00:47:21.018Z,26.45
2022-11-22T00:49:47.926Z,25.95
2022-11-22T00:52:14.981Z,27.95
2022-11-22T00:54:41.912Z,26.83
2022-11-22T00:57:09.056Z,26.83
2022-11-22T00:59:36.181Z,27.83
2022-11-22T01:02:03.251Z,24.70
2022-11-22T01:04:30.101Z,26.95
2022-11-22T01:06:57.413Z,21.40
2022-11-22T01:09:24.684Z,27.88
2022-11-22T01:11:51.993Z,25.20
2022-11-22T01:14:19.443Z,25.48
2022-11-22T01:16:46.839Z,26.73
2022-11-22T01:19:14.390Z,28.00
2022-11-22T01:21:41.410Z,27.30
2022-11-22T01:24:09.551Z,26.90
2022-11-22T01:26:36.879Z,27.48
2022-11-22T01:29:04.780Z,27.13
2022-11-22T01:31:31.775Z,25.40
2022-11-22T01:33:59.696Z,25.67
2022-11-22T01:36:27.810Z,28.85
2022-11-22T01:38:55.143Z,25.55
2022-11-22T01:41:22.234Z,27.30
2022-11-22T01:43:49.705Z,25.90
2022-11-22T01:46:38.888Z,23.83
2022-11-22T01:49:23.588Z,27.77
2022-11-22T01:51:54.279Z,24.70
2022-11-22T01:54:25.860Z,28.38
2022-11-22T01:56:57.101Z,23.98
2022-11-22T01:59:29.097Z,27.85
2022-11-22T02:01:57.055Z,30.50
2022-11-22T02:04:28.587Z,25.13
2022-11-22T02:07:09.153Z,27.35
2022-11-22T02:09:39.084Z,26.13
2022-11-22T02:12:08.617Z,25.98
2022-11-22T02:14:38.712Z,25.52
2022-11-22T02:17:05.775Z,26.58
2022-11-22T02:19:49.177Z,26.50
2022-11-22T02:22:48.066Z,24.92
2022-11-22T02:25:24.444Z,25.48
2022-11-22T02:27:51.558Z,24.10
2022-11-22T02:30:19.341Z,28.65
2022-11-22T02:32:46.338Z,23.08
2022-11-22T02:35:25.141Z,27.17
2022-11-22T02:37:58.493Z,27.98
2022-11-22T02:40:28.389Z,26.08
2022-11-22T02:43:22.691Z,27.60
2022-11-22T02:45:49.704Z,26.58
2022-11-22T02:48:19.379Z,28.65
2022-11-22T02:50:47.476Z,27.30
2022-11-22T02:53:14.758Z,25.35
2022-11-22T02:55:41.787Z,29.85
2022-11-22T02:58:08.878Z,24.95
2022-11-22T03:00:38.169Z,33.72
2022-11-22T03:03:05.858Z,29.77
2022-11-22T03:05:33.494Z,29.83
2022-11-22T03:08:00.337Z,29.08
2022-11-22T03:10:27.417Z,28.58
2022-11-22T03:12:54.564Z,30.65
2022-11-22T03:15:21.440Z,29.48
2022-11-22T03:17:48.457Z,29.65
2022-11-22T03:20:15.951Z,27.85
2022-11-22T03:22:42.797Z,30.70
2022-11-22T03:25:09.981Z,25.75
2022-11-22T03:27:36.923Z,26.48
2022-11-22T03:30:04.375Z,27.63
2022-11-22T03:32:31.219Z,29.30
2022-11-22T03:34:58.474Z,35.17
2022-11-22T03:37:25.338Z,26.92
2022-11-22T03:39:52.331Z,31.65
2022-11-22T03:42:21.977Z,33.33
2022-11-22T03:44:49.651Z,33.35
2022-11-22T03:47:16.663Z,27.25
2022-11-22T03:49:44.060Z,27.75
2022-11-22T03:52:12.090Z,26.65
2022-11-22T03:54:39.187Z,29.10
2022-11-22T03:57:06.423Z,32.50
2022-11-22T03:59:33.416Z,31.52
2022-11-22T04:02:00.348Z,30.67
2022-11-22T04:04:27.579Z,30.58
2022-11-22T04:06:54.429Z,36.50
2022-11-22T04:09:21.484Z,37.17
2022-11-22T04:11:48.525Z,29.42
2022-11-22T04:14:33.839Z,31.75
2022-11-22T04:17:01.369Z,33.45
2022-11-22T04:19:28.553Z,33.47
2022-11-22T04:21:55.852Z,32.97
2022-11-22T04:24:41.409Z,31.98
2022-11-22T04:27:08.394Z,33.63
2022-11-22T04:29:35.256Z,34.63
2022-11-22T04:32:21.209Z,33.53
2022-11-22T04:34:48.494Z,36.43
2022-11-22T04:37:15.414Z,32.05
2022-11-22T04:39:42.527Z,37.13
2022-11-22T04:42:27.968Z,33.95
2022-11-22T04:44:56.445Z,33.15
2022-11-22T04:47:45.032Z,34.45
2022-11-22T04:50:34.620Z,34.80
2022-11-22T04:53:01.504Z,38.47
2022-11-22T04:55:28.339Z,31.60
2022-11-22T04:57:59.701Z,34.42
2022-11-22T05:00:29.242Z,35.85
2022-11-22T05:02:57.904Z,35.78
2022-11-22T05:05:25.882Z,40.42
2022-11-22T05:07:52.944Z,42.03
2022-11-22T05:10:26.031Z,34.13
2022-11-22T05:12:53.857Z,38.47
2022-11-22T05:15:21.043Z,35.65
2022-11-22T05:17:48.484Z,36.63
2022-11-22T05:20:15.289Z,40.38
2022-11-22T05:23:01.094Z,40.08
2022-11-22T05:25:27.937Z,34.80
2022-11-22T05:27:55.151Z,36.67
2022-11-22T05:30:22.597Z,35.65
2022-11-22T05:32:49.454Z,39.10
2022-11-22T05:35:16.598Z,33.83
2022-11-22T05:37:43.555Z,35.63
2022-11-22T05:40:11.546Z,35.58
2022-11-22T05:42:38.350Z,37.08
2022-11-22T05:45:06.139Z,37.65
2022-11-22T05:47:36.591Z,34.58
2022-11-22T05:50:04.808Z,34.25
2022-11-22T05:52:32.175Z,37.03
2022-11-22T05:54:59.114Z,33.20
2022-11-22T05:57:26.517Z,34.95
2022-11-22T05:59:54.741Z,35.90
2022-11-22T06:02:21.692Z,33.55
2022-11-22T06:04:48.806Z,37.10
2022-11-22T06:07:15.926Z,37.88
2022-11-22T06:09:42.875Z,32.72
2022-11-22T06:12:09.718Z,36.50
2022-11-22T06:14:43.017Z,37.17
2022-11-22T06:17:10.647Z,38.70
2022-11-22T06:19:37.499Z,37.60
2022-11-22T06:22:04.548Z,36.63
2022-11-22T06:24:31.409Z,38.03
2022-11-22T06:26:58.616Z,34.17
2022-11-22T06:29:25.787Z,39.85
2022-11-22T06:31:53.498Z,38.03
2022-11-22T06:34:20.343Z,34.70
2022-11-22T06:36:47.624Z,34.88
2022-11-22T06:39:14.535Z,35.63
2022-11-22T06:41:41.597Z,32.58
2022-11-22T06:44:10.228Z,34.28
2022-11-22T06:46:37.755Z,34.40
2022-11-22T06:49:04.847Z,36.05
2022-11-22T06:51:33.407Z,39.25
2022-11-22T06:54:00.251Z,35.05
2022-11-22T06:56:30.676Z,38.33
2022-11-22T06:59:01.821Z,38.33
2022-11-22T07:01:30.410Z,31.90
2022-11-22T07:04:03.796Z,34.33
2022-11-22T07:06:34.956Z,34.08
2022-11-22T07:09:08.376Z,35.55
2022-11-22T07:11:36.827Z,36.72
2022-11-22T07:14:08.870Z,35.13
2022-11-22T07:16:38.745Z,35.83
2022-11-22T07:19:06.570Z,36.15
2022-11-22T07:21:34.698Z,33.05
2022-11-22T07:24:01.688Z,31.30
2022-11-22T07:26:28.722Z,34.75
2022-11-22T07:28:55.991Z,37.13
2022-11-22T07:31:23.237Z,29.02
2022-11-22T07:33:50.423Z,34.70
2022-11-22T07:36:20.787Z,33.28
2022-11-22T07:38:49.009Z,34.67
2022-11-22T07:41:17.996Z,34.33
2022-11-22T07:43:46.733Z,33.53
2022-11-22T07:46:29.679Z,32.80
2022-11-22T07:48:57.908Z,35.15
2022-11-22T07:51:24.998Z,33.33
2022-11-22T07:53:52.185Z,37.72
2022-11-22T07:56:19.414Z,34.47
2022-11-22T07:58:46.721Z,34.97
2022-11-22T08:01:18.870Z,35.47
2022-11-22T08:03:46.842Z,30.63
2022-11-22T08:06:14.731Z,39.20
2022-11-22T08:08:42.670Z,37.22
2022-11-22T08:11:11.027Z,33.92
2022-11-22T08:13:37.981Z,40.00
2022-11-22T08:16:14.298Z,34.35
2022-11-22T08:18:45.533Z,36.97
2022-11-22T08:21:14.542Z,35.38
2022-11-22T08:23:42.768Z,37.83
2022-11-22T08:26:13.897Z,37.45
2022-11-22T08:28:42.535Z,43.53
2022-11-22T08:31:14.024Z,37.63
2022-11-22T08:33:41.793Z,38.13
2022-11-22T08:36:09.061Z,37.92
2022-11-22T08:38:36.615Z,39.83
2022-11-22T08:41:05.637Z,42.70
2022-11-22T08:43:33.238Z,43.90
2022-11-22T08:46:02.168Z,43.75
2022-11-22T08:48:32.696Z,39.55
2022-11-22T08:51:03.393Z,48.88
2022-11-22T08:53:33.548Z,44.70
2022-11-22T08:56:02.516Z,40.00
2022-11-22T08:58:31.339Z,39.28
2022-11-22T09:01:06.963Z,39.33
2022-11-22T09:03:35.920Z,40.03
2022-11-22T09:09:36.381Z,47.33
2022-11-22T09:11:47.988Z,49.45
2022-11-22T09:14:15.028Z,47.53
2022-11-22T09:16:42.127Z,45.33
2022-11-22T09:19:09.749Z,48.35
2022-11-22T09:21:36.996Z,41.00
2022-11-22T09:24:04.250Z,47.53
2022-11-22T09:26:31.320Z,42.58
2022-11-22T09:28:58.339Z,45.08
2022-11-22T09:31:25.763Z,43.25
2022-11-22T09:33:52.713Z,42.90
2022-11-22T09:36:22.948Z,48.15
2022-11-22T09:38:51.620Z,48.25
2022-11-22T09:41:56.069Z,47.78
2022-11-22T09:44:46.655Z,44.17
2022-11-22T09:47:49.627Z,40.15
2022-11-22T09:50:38.259Z,50.85
2022-11-22T09:53:35.142Z,44.33
2022-11-22T09:56:09.698Z,41.60
2022-11-22T09:59:06.700Z,40.65
2022-11-22T10:01:45.889Z,46.22
2022-11-22T10:04:25.167Z,50.92
2022-11-22T10:07:18.994Z,45.25
2022-11-22T10:10:12.047Z,45.72
2022-11-22T10:12:47.968Z,45.67
2022-11-22T10:15:49.633Z,51.85
2022-11-22T10:18:51.435Z,43.28
2022-11-22T10:21:20.039Z,45.10
2022-11-22T10:23:48.327Z,42.97
2022-11-22T10:26:30.038Z,48.47
2022-11-22T10:29:13.065Z,42.25
2022-11-22T10:32:20.623Z,50.90
2022-11-22T10:35:32.890Z,48.95
2022-11-22T10:38:41.437Z,48.28
2022-11-22T10:41:29.542Z,47.22
2022-11-22T10:44:23.685Z,51.45
2022-11-22T10:47:03.765Z,50.90
2022-11-22T10:49:52.337Z,47.63
2022-11-22T10:52:49.610Z,45.35
2022-11-22T10:58:28.201Z,47.50
2022-11-22T11:01:21.869Z,44.20
2022-11-22T11:03:54.939Z,49.03
2022-11-22T11:10:10.341Z,52.75
2022-11-22T11:12:43.454Z,43.38
2022-11-22T11:15:21.941Z,46.22
2022-11-22T11:17:59.056Z,45.85
2022-11-22T11:20:31.029Z,45.95
2022-11-22T11:23:14.277Z,43.92
2022-11-22T11:25:45.617Z,42.50
2022-11-22T11:28:22.042Z,46.53
2022-11-22T11:33:49.130Z,40.38
2022-11-22T11:36:23.838Z,43.40
2022-11-22T11:38:57.561Z,44.50
2022-11-22T11:41:40.279Z,47.53
2022-11-22T11:44:32.451Z,45.10
2022-11-22T11:47:00.025Z,43.60
2022-11-22T11:49:33.679Z,42.83
2022-11-22T11:52:09.790Z,44.15
2022-11-22T11:54:46.962Z,41.65
2022-11-22T11:57:28.673Z,43.22
2022-11-22T11:59:59.534Z,48.85
2022-11-22T12:02:41.475Z,46.42
2022-11-22T12:05:14.744Z,42.80
2022-11-22T12:07:45.275Z,43.83
2022-11-22T12:10:50.281Z,46.90
2022-11-22T12:13:37.171Z,45.58
2022-11-22T12:16:35.311Z,40.65
2022-11-22T12:19:29.692Z,42.60
2022-11-22T12:25:34.273Z,43.08
2022-11-22T12:28:19.431Z,41.08
2022-11-22T12:34:07.129Z,37.13
2022-11-22T12:37:20.794Z,40.38
2022-11-22T12:39:51.985Z,40.33
2022-11-22T12:42:29.372Z,40.85
2022-11-22T12:45:12.115Z,44.05
2022-11-22T12:47:42.117Z,37.35
2022-11-22T12:48:22.534Z,40.60
2022-11-22T12:50:44.734Z,42.70
2022-11-22T12:53:30.287Z,39.90
2022-11-22T12:56:28.366Z,37.35
2022-11-22T12:59:10.435Z,36.90
2022-11-22T13:01:37.590Z,40.10
2022-11-22T13:04:11.302Z,40.20
2022-11-22T13:06:57.494Z,39.33
2022-11-22T13:09:38.766Z,37.25
2022-11-22T13:12:15.641Z,36.63
2022-11-22T13:14:48.252Z,43.92
2022-11-22T13:17:17.665Z,38.55
2022-11-22T13:19:55.307Z,41.80
2022-11-22T13:23:00.552Z,35.95
2022-11-22T13:26:10.353Z,40.90
2022-11-22T13:28:42.515Z,34.45
2022-11-22T13:31:19.014Z,38.60
2022-11-22T13:33:56.922Z,34.75
2022-11-22T13:36:30.055Z,35.90
2022-11-22T13:39:01.041Z,39.70
2022-11-22T13:41:29.849Z,36.40
2022-11-22T13:44:39.382Z,42.55
2022-11-22T13:47:36.790Z,41.75
2022-11-22T13:50:41.895Z,37.42
2022-11-22T13:53:30.894Z,35.80
2022-11-22T13:56:21.823Z,36.05
2022-11-22T13:58:51.681Z,38.90
2022-11-22T14:01:34.602Z,40.70
2022-11-22T14:04:16.992Z,38.53
2022-11-22T14:06:50.038Z,35.25
2022-11-22T14:09:32.137Z,39.95
2022-11-22T14:12:40.255Z,38.25
2022-11-22T14:15:29.585Z,42.75
2022-11-22T14:18:21.669Z,41.63
2022-11-22T14:21:04.372Z,36.97
2022-11-22T14:23:57.251Z,40.58
2022-11-22T14:27:04.942Z,38.53
2022-11-22T14:30:09.291Z,36.90
2022-11-22T14:33:05.912Z,37.08
2022-11-22T14:35:39.202Z,38.80
2022-11-22T14:38:33.196Z,40.85
2022-11-22T14:41:28.841Z,39.47
2022-11-22T14:44:07.357Z,42.90
2022-11-22T14:46:53.179Z,38.70
2022-11-22T14:49:42.779Z,36.08
2022-11-22T14:52:25.522Z,43.08
2022-11-22T14:55:05.994Z,38.08
2022-11-22T14:57:37.069Z,40.90
2022-11-22T15:00:25.055Z,41.33
2022-11-22T15:03:14.980Z,40.40
2022-11-22T15:09:14.161Z,42.35
2022-11-22T15:09:52.192Z,37.55
2022-11-22T15:12:33.589Z,41.88
2022-11-22T15:59:46.907Z,39.05
2022-11-22T16:02:31.779Z,39.65
2022-11-22T16:06:06.634Z,43.50
2022-11-22T16:07:51.999Z,39.95
2022-11-22T16:10:50.113Z,41.75
2022-11-22T16:13:21.208Z,40.05
2022-11-22T16:16:10.588Z,40.30
2022-11-22T16:18:42.954Z,38.25
2022-11-22T16:21:15.746Z,37.08
2022-11-22T16:23:47.568Z,46.70
2022-11-22T16:26:19.820Z,49.25
2022-11-22T16:28:51.108Z,41.13
2022-11-22T16:31:32.197Z,46.67
2022-11-22T16:33:59.858Z,38.83
2022-11-22T16:36:30.243Z,45.25
2022-11-22T16:38:57.378Z,43.97
2022-11-22T16:41:29.816Z,44.72
2022-11-22T16:44:03.051Z,44.28
2022-11-22T16:46:30.941Z,43.00
2022-11-22T16:48:58.165Z,41.92
2022-11-22T16:51:28.577Z,50.40
2022-11-22T16:54:00.362Z,50.75
2022-11-22T16:56:29.864Z,42.83
2022-11-22T16:58:58.098Z,44.50
2022-11-22T17:01:32.723Z,50.20
2022-11-22T17:04:02.851Z,50.05
2022-11-22T17:06:31.250Z,49.58
2022-11-22T17:09:00.377Z,45.53
2022-11-22T17:11:31.246Z,43.72
2022-11-22T17:13:59.839Z,44.47
2022-11-22T17:16:27.084Z,48.28
2022-11-22T17:18:54.241Z,46.63
2022-11-22T17:21:37.726Z,47.85
2022-11-22T17:24:23.781Z,48.10
2022-11-22T17:26:51.348Z,44.88
2022-11-22T17:29:48.854Z,43.83
2022-11-22T17:32:06.212Z,45.83
2022-11-22T17:34:33.584Z,43.35
2022-11-22T17:37:00.960Z,45.72
2022-11-22T17:39:28.403Z,45.20
2022-11-22T17:41:55.713Z,46.47
2022-11-22T17:44:22.753Z,48.08
2022-11-22T17:46:50.583Z,55.70
2022-11-22T17:49:17.570Z,49.53
2022-11-22T17:51:46.555Z,54.80
2022-11-22T17:54:13.673Z,48.13
2022-11-22T17:56:40.739Z,48.95
2022-11-22T17:59:07.733Z,46.83
2022-11-22T18:01:36.972Z,52.22
2022-11-22T18:04:04.088Z,51.05
2022-11-22T18:06:32.182Z,48.63
2022-11-22T18:09:00.383Z,43.08
2022-11-22T18:11:27.572Z,50.28
2022-11-22T18:13:54.636Z,46.47
2022-11-22T18:16:28.006Z,54.08
2022-11-22T18:18:57.735Z,50.17
2022-11-22T18:21:29.267Z,48.20
2022-11-22T18:24:01.366Z,58.88
2022-11-22T18:26:44.398Z,47.63
2022-11-22T18:32:01.853Z,45.38
2022-11-22T18:34:30.089Z,51.25
2022-11-22T18:37:02.085Z,53.38
2022-11-22T18:39:39.039Z,46.13
2022-11-22T18:42:15.263Z,45.28
2022-11-22T18:44:43.059Z,44.97
2022-11-22T18:47:10.195Z,46.35
2022-11-22T18:49:37.791Z,47.63
2022-11-22T18:52:05.426Z,47.00
2022-11-22T18:54:32.909Z,46.85
2022-11-22T18:57:00.257Z,44.72
2022-11-22T18:59:27.979Z,47.88
2022-11-22T19:01:55.518Z,50.20
2022-11-22T19:04:22.611Z,45.85
2022-11-22T19:06:49.630Z,48.83
2022-11-22T19:09:16.706Z,45.72
2022-11-22T19:11:43.633Z,51.53
2022-11-22T19:14:11.105Z,47.58
2022-11-22T19:16:38.127Z,51.15
2022-11-22T19:19:05.231Z,47.40
2022-11-22T19:21:32.251Z,45.45
2022-11-22T19:23:59.245Z,48.95
2022-11-22T19:26:28.059Z,43.33
2022-11-22T19:28:57.618Z,48.75
2022-11-22T19:31:28.745Z,53.42
2022-11-22T19:33:55.844Z,49.88
2022-11-22T19:36:32.214Z,46.72
2022-11-22T19:39:00.957Z,48.33
2022-11-22T19:41:28.893Z,48.75
2022-11-22T19:43:56.648Z,48.70
2022-11-22T19:46:25.117Z,50.40
2022-11-22T19:48:57.568Z,51.53
2022-11-22T19:51:26.169Z,45.70
2022-11-22T19:54:00.667Z,48.25
2022-11-22T19:56:31.007Z,49.45
2022-11-22T19:58:59.887Z,46.80
2022-11-22T20:01:31.159Z,46.33
2022-11-22T20:04:05.350Z,50.78
2022-11-22T20:06:34.338Z,48.92
2022-11-22T20:09:11.591Z,49.92
2022-11-22T20:11:40.950Z,51.10
2022-11-22T20:14:09.517Z,50.58
2022-11-22T20:16:41.443Z,43.90
2022-11-22T20:19:10.498Z,47.03
2022-11-22T20:21:39.865Z,50.67
2022-11-22T20:24:09.921Z,49.78
2022-11-22T20:26:37.169Z,54.47
2022-11-22T20:29:08.120Z,45.08
2022-11-22T20:31:37.878Z,50.13
2022-11-22T20:34:05.144Z,48.08
2022-11-22T20:36:34.763Z,51.00
2022-11-22T20:39:07.021Z,50.50
2022-11-22T20:41:37.057Z,50.17
2022-11-22T20:44:04.396Z,49.25
2022-11-22T20:46:31.505Z,44.90
2022-11-22T20:48:58.634Z,50.72
2022-11-22T20:51:27.975Z,49.35
2022-11-22T20:53:57.493Z,52.63
2022-11-22T20:56:25.693Z,46.58
2022-11-22T20:58:52.681Z,49.22
2022-11-22T21:01:24.101Z,50.00
2022-11-22T21:03:52.812Z,54.20
2022-11-22T21:06:21.999Z,46.75
2022-11-22T21:08:49.332Z,50.53
2022-11-22T21:11:19.851Z,47.08
2022-11-22T21:13:48.008Z,43.25
2022-11-22T21:16:24.908Z,54.38
2022-11-22T21:19:01.729Z,50.72
2022-11-22T21:21:31.303Z,46.10
2022-11-22T21:24:01.090Z,45.28
2022-11-22T21:26:29.140Z,57.83
2022-11-22T21:28:57.358Z,49.85
2022-11-22T21:31:25.023Z,51.72
2022-11-22T21:33:52.836Z,47.30
2022-11-22T21:36:20.826Z,50.33
2022-11-22T21:38:47.790Z,48.60
2022-11-22T21:44:09.599Z,46.03
2022-11-22T21:46:37.087Z,46.85
2022-11-22T21:49:04.082Z,46.35
2022-11-22T21:51:31.800Z,44.75
2022-11-22T21:54:01.092Z,48.53
2022-11-22T21:56:28.312Z,49.25
2022-11-22T21:58:56.064Z,51.75
2022-11-22T22:01:24.636Z,53.95
2022-11-22T22:03:52.717Z,52.58
2022-11-22T22:06:19.789Z,55.55
2022-11-22T22:08:47.051Z,53.35
2022-11-22T22:11:14.517Z,52.70
2022-11-22T22:13:41.502Z,49.80
2022-11-22T22:16:12.731Z,49.42
2022-11-22T22:18:39.879Z,48.38
2022-11-22T22:21:09.551Z,50.10
2022-11-22T22:23:39.609Z,53.35
2022-11-22T22:26:09.966Z,52.70
2022-11-22T22:28:38.199Z,49.38
2022-11-22T22:31:23.949Z,48.88
2022-11-22T22:33:55.128Z,50.17
2022-11-22T22:36:26.132Z,49.42
2022-11-22T22:38:54.879Z,52.47
2022-11-22T22:41:22.018Z,49.35
2022-11-22T22:43:49.713Z,50.95
2022-11-22T22:46:22.638Z,48.83
2022-11-22T22:48:51.004Z,54.15
2022-11-22T22:51:32.684Z,50.35
2022-11-22T22:54:01.281Z,47.08
2022-11-22T22:56:31.373Z,51.13
2022-11-22T22:59:01.394Z,50.30
2022-11-22T23:01:30.828Z,58.55
2022-11-22T23:04:00.514Z,56.13
2022-11-22T23:06:34.358Z,53.75
2022-11-22T23:09:02.687Z,55.25
2022-11-22T23:11:50.533Z,54.47
2022-11-22T23:14:25.210Z,46.00
2022-11-22T23:16:57.312Z,58.90
2022-11-22T23:19:26.002Z,52.17
2022-11-22T23:21:53.506Z,54.28
2022-11-22T23:24:20.931Z,48.58
2022-11-22T23:26:47.843Z,54.30
2022-11-22T23:29:15.245Z,55.30
2022-11-22T23:31:42.073Z,52.42
2022-11-22T23:34:11.612Z,53.10
2022-11-22T23:36:41.117Z,56.22
2022-11-22T23:39:09.215Z,50.83
2022-11-22T23:41:36.177Z,52.00
2022-11-22T23:44:03.638Z,55.47
2022-11-22T23:46:30.643Z,49.78
2022-11-22T23:49:00.043Z,54.80
2022-11-22T23:51:29.719Z,50.35
2022-11-22T23:54:02.291Z,47.65
2022-11-22T23:56:31.384Z,52.70
2022-11-22T23:58:59.784Z,54.58
